sensor_id;sensor_type;location;lat;lon;timestamp;temperature;humidity
7822;DHT22;3956;50.558;9.678;2023-04-16T00:02:21;8.10;1.00
7822;DHT22;3956;50.558;9.678;2023-04-16T00:04:53;8.10;1.00
7822;DHT22;3956;50.558;9.678;2023-04-16T00:07:21;8.20;1.00
7822;DHT22;3956;50.558;9.678;2023-04-16T00:09:51;8.10;1.00
7822;DHT22;3956;50.558;9.678;2023-04-16T00:12:19;8.10;1.00
7822;DHT22;3956;50.558;9.678;2023-04-16T00:14:50;8.10;1.00
7822;DHT22;3956;50.558;9.678;2023-04-16T00:17:19;8.10;1.00
7822;DHT22;3956;50.558;9.678;2023-04-16T00:19:51;8.10;1.00
7822;DHT22;3956;50.558;9.678;2023-04-16T00:22:19;8.10;1.00
7822;DHT22;3956;50.558;9.678;2023-04-16T00:24:47;8.20;1.00
7822;DHT22;3956;50.558;9.678;2023-04-16T00:27:17;8.20;1.00
7822;DHT22;3956;50.558;9.678;2023-04-16T00:29:46;8.20;1.00
7822;DHT22;3956;50.558;9.678;2023-04-16T00:32:16;8.20;1.00
7822;DHT22;3956;50.558;9.678;2023-04-16T00:34:46;8.20;1.00
7822;DHT22;3956;50.558;9.678;2023-04-16T00:37:15;8.20;1.00
7822;DHT22;3956;50.558;9.678;2023-04-16T00:39:44;8.20;1.00
7822;DHT22;3956;50.558;9.678;2023-04-16T00:42:16;8.20;1.00
7822;DHT22;3956;50.558;9.678;2023-04-16T00:44:47;8.20;1.00
7822;DHT22;3956;50.558;9.678;2023-04-16T00:47:16;8.20;1.00
7822;DHT22;3956;50.558;9.678;2023-04-16T00:49:49;8.20;1.00
7822;DHT22;3956;50.558;9.678;2023-04-16T00:52:18;8.20;1.00
7822;DHT22;3956;50.558;9.678;2023-04-16T00:54:49;8.20;1.00
7822;DHT22;3956;50.558;9.678;2023-04-16T00:57:18;8.20;99.90
7822;DHT22;3956;50.558;9.678;2023-04-16T00:59:50;8.20;99.90
7822;DHT22;3956;50.558;9.678;2023-04-16T01:02:20;8.20;99.90
7822;DHT22;3956;50.558;9.678;2023-04-16T01:04:49;8.20;99.90
7822;DHT22;3956;50.558;9.678;2023-04-16T01:07:19;8.20;99.90
7822;DHT22;3956;50.558;9.678;2023-04-16T01:09:49;8.20;99.90
7822;DHT22;3956;50.558;9.678;2023-04-16T01:12:19;8.20;99.90
7822;DHT22;3956;50.558;9.678;2023-04-16T01:14:47;8.20;99.90
7822;DHT22;3956;50.558;9.678;2023-04-16T01:17:15;8.20;99.90
7822;DHT22;3956;50.558;9.678;2023-04-16T01:19:50;8.20;99.90
7822;DHT22;3956;50.558;9.678;2023-04-16T01:22:20;8.20;99.90
7822;DHT22;3956;50.558;9.678;2023-04-16T01:24:50;8.20;99.90
7822;DHT22;3956;50.558;9.678;2023-04-16T01:27:18;8.20;99.90
7822;DHT22;3956;50.558;9.678;2023-04-16T01:29:47;8.20;99.90
7822;DHT22;3956;50.558;9.678;2023-04-16T01:32:16;8.20;99.90
7822;DHT22;3956;50.558;9.678;2023-04-16T01:34:46;8.20;99.90
7822;DHT22;3956;50.558;9.678;2023-04-16T01:37:16;8.20;99.90
7822;DHT22;3956;50.558;9.678;2023-04-16T01:39:47;8.20;99.90
7822;DHT22;3956;50.558;9.678;2023-04-16T01:42:16;8.20;99.90
7822;DHT22;3956;50.558;9.678;2023-04-16T01:44:49;8.20;99.90
7822;DHT22;3956;50.558;9.678;2023-04-16T01:47:35;8.20;99.90
7822;DHT22;3956;50.558;9.678;2023-04-16T01:50:04;8.20;99.90
7822;DHT22;3956;50.558;9.678;2023-04-16T01:52:32;8.20;99.90
7822;DHT22;3956;50.558;9.678;2023-04-16T01:55:02;8.20;99.90
7822;DHT22;3956;50.558;9.678;2023-04-16T01:57:30;8.20;99.90
7822;DHT22;3956;50.558;9.678;2023-04-16T02:00:00;8.20;99.90
7822;DHT22;3956;50.558;9.678;2023-04-16T02:02:30;8.20;99.90
7822;DHT22;3956;50.558;9.678;2023-04-16T02:05:04;8.20;99.90
7822;DHT22;3956;50.558;9.678;2023-04-16T02:07:36;8.20;99.90
7822;DHT22;3956;50.558;9.678;2023-04-16T02:10:11;8.20;99.90
7822;DHT22;3956;50.558;9.678;2023-04-16T02:12:44;8.20;99.90
7822;DHT22;3956;50.558;9.678;2023-04-16T02:15:15;8.20;99.90
7822;DHT22;3956;50.558;9.678;2023-04-16T02:17:49;8.20;99.90
7822;DHT22;3956;50.558;9.678;2023-04-16T02:20:24;8.20;99.90
7822;DHT22;3956;50.558;9.678;2023-04-16T02:22:55;8.10;99.90
7822;DHT22;3956;50.558;9.678;2023-04-16T02:25:28;8.10;99.90
7822;DHT22;3956;50.558;9.678;2023-04-16T02:27:58;8.10;99.90
7822;DHT22;3956;50.558;9.678;2023-04-16T02:30:30;8.10;99.90
7822;DHT22;3956;50.558;9.678;2023-04-16T02:33:02;8.10;99.90
7822;DHT22;3956;50.558;9.678;2023-04-16T02:35:36;8.10;99.90
7822;DHT22;3956;50.558;9.678;2023-04-16T02:38:06;8.10;99.90
7822;DHT22;3956;50.558;9.678;2023-04-16T02:40:39;8.10;99.90
7822;DHT22;3956;50.558;9.678;2023-04-16T02:43:10;8.00;99.90
7822;DHT22;3956;50.558;9.678;2023-04-16T02:45:40;8.00;99.90
7822;DHT22;3956;50.558;9.678;2023-04-16T02:48:11;8.00;99.90
7822;DHT22;3956;50.558;9.678;2023-04-16T02:50:39;8.00;99.90
7822;DHT22;3956;50.558;9.678;2023-04-16T02:53:08;8.10;99.90
7822;DHT22;3956;50.558;9.678;2023-04-16T02:55:41;8.00;99.90
7822;DHT22;3956;50.558;9.678;2023-04-16T02:58:16;8.00;99.90
7822;DHT22;3956;50.558;9.678;2023-04-16T03:00:50;8.10;99.90
7822;DHT22;3956;50.558;9.678;2023-04-16T03:03:35;8.10;99.90
7822;DHT22;3956;50.558;9.678;2023-04-16T03:06:13;8.10;99.90
7822;DHT22;3956;50.558;9.678;2023-04-16T03:08:41;8.00;99.90
7822;DHT22;3956;50.558;9.678;2023-04-16T03:11:10;8.10;99.90
7822;DHT22;3956;50.558;9.678;2023-04-16T03:13:38;8.10;99.90
7822;DHT22;3956;50.558;9.678;2023-04-16T03:16:08;8.10;99.90
7822;DHT22;3956;50.558;9.678;2023-04-16T03:18:39;8.00;99.90
7822;DHT22;3956;50.558;9.678;2023-04-16T03:21:08;8.10;99.90
7822;DHT22;3956;50.558;9.678;2023-04-16T03:23:38;8.10;99.90
7822;DHT22;3956;50.558;9.678;2023-04-16T03:26:06;8.10;99.90
7822;DHT22;3956;50.558;9.678;2023-04-16T03:28:35;8.10;99.90
7822;DHT22;3956;50.558;9.678;2023-04-16T03:31:03;8.10;99.90
7822;DHT22;3956;50.558;9.678;2023-04-16T03:33:32;8.10;99.90
7822;DHT22;3956;50.558;9.678;2023-04-16T03:36:00;8.10;99.90
7822;DHT22;3956;50.558;9.678;2023-04-16T03:38:30;8.10;99.90
7822;DHT22;3956;50.558;9.678;2023-04-16T03:40:59;8.10;99.90
7822;DHT22;3956;50.558;9.678;2023-04-16T03:43:30;8.10;99.90
7822;DHT22;3956;50.558;9.678;2023-04-16T03:46:01;8.00;99.90
7822;DHT22;3956;50.558;9.678;2023-04-16T03:48:30;8.00;99.90
7822;DHT22;3956;50.558;9.678;2023-04-16T03:51:03;8.10;99.90
7822;DHT22;3956;50.558;9.678;2023-04-16T03:53:33;8.00;99.90
7822;DHT22;3956;50.558;9.678;2023-04-16T03:56:01;8.00;99.90
7822;DHT22;3956;50.558;9.678;2023-04-16T03:58:29;8.00;99.90
7822;DHT22;3956;50.558;9.678;2023-04-16T04:00:58;8.00;99.90
7822;DHT22;3956;50.558;9.678;2023-04-16T04:03:31;8.00;99.90
7822;DHT22;3956;50.558;9.678;2023-04-16T04:06:05;8.00;99.90
7822;DHT22;3956;50.558;9.678;2023-04-16T04:08:34;7.90;99.90
7822;DHT22;3956;50.558;9.678;2023-04-16T04:11:06;8.00;99.90
7822;DHT22;3956;50.558;9.678;2023-04-16T04:13:34;8.00;99.90
7822;DHT22;3956;50.558;9.678;2023-04-16T04:16:06;7.90;99.90
7822;DHT22;3956;50.558;9.678;2023-04-16T04:18:44;7.90;99.90
7822;DHT22;3956;50.558;9.678;2023-04-16T04:21:13;7.90;99.90
7822;DHT22;3956;50.558;9.678;2023-04-16T04:23:42;7.80;99.90
7822;DHT22;3956;50.558;9.678;2023-04-16T04:26:10;7.90;99.90
7822;DHT22;3956;50.558;9.678;2023-04-16T04:28:38;7.90;99.90
7822;DHT22;3956;50.558;9.678;2023-04-16T04:31:08;7.80;99.90
7822;DHT22;3956;50.558;9.678;2023-04-16T04:33:36;7.80;99.90
7822;DHT22;3956;50.558;9.678;2023-04-16T04:36:06;7.80;99.90
7822;DHT22;3956;50.558;9.678;2023-04-16T04:38:36;7.80;99.90
7822;DHT22;3956;50.558;9.678;2023-04-16T04:41:04;7.80;1.00
7822;DHT22;3956;50.558;9.678;2023-04-16T04:43:34;7.80;1.00
7822;DHT22;3956;50.558;9.678;2023-04-16T04:46:08;7.80;1.00
7822;DHT22;3956;50.558;9.678;2023-04-16T04:48:37;7.80;1.00
7822;DHT22;3956;50.558;9.678;2023-04-16T04:51:08;7.80;1.00
7822;DHT22;3956;50.558;9.678;2023-04-16T04:53:39;7.80;1.00
7822;DHT22;3956;50.558;9.678;2023-04-16T04:56:07;7.80;1.00
7822;DHT22;3956;50.558;9.678;2023-04-16T04:58:39;7.80;1.00
7822;DHT22;3956;50.558;9.678;2023-04-16T05:01:07;7.80;1.00
7822;DHT22;3956;50.558;9.678;2023-04-16T05:03:39;7.80;1.00
7822;DHT22;3956;50.558;9.678;2023-04-16T05:06:09;7.80;99.90
7822;DHT22;3956;50.558;9.678;2023-04-16T05:08:37;7.80;1.00
7822;DHT22;3956;50.558;9.678;2023-04-16T05:11:07;7.80;1.00
7822;DHT22;3956;50.558;9.678;2023-04-16T05:13:35;7.80;1.00
7822;DHT22;3956;50.558;9.678;2023-04-16T05:16:05;7.80;1.00
7822;DHT22;3956;50.558;9.678;2023-04-16T05:18:33;7.80;1.00
7822;DHT22;3956;50.558;9.678;2023-04-16T05:21:04;7.80;1.00
7822;DHT22;3956;50.558;9.678;2023-04-16T05:23:34;7.80;1.00
7822;DHT22;3956;50.558;9.678;2023-04-16T05:26:02;7.80;1.00
7822;DHT22;3956;50.558;9.678;2023-04-16T05:28:30;7.70;1.00
7822;DHT22;3956;50.558;9.678;2023-04-16T05:31:01;7.70;1.00
7822;DHT22;3956;50.558;9.678;2023-04-16T05:33:29;7.80;1.00
7822;DHT22;3956;50.558;9.678;2023-04-16T05:35:57;7.80;1.00
7822;DHT22;3956;50.558;9.678;2023-04-16T05:38:26;7.70;1.00
7822;DHT22;3956;50.558;9.678;2023-04-16T05:40:57;7.70;1.00
7822;DHT22;3956;50.558;9.678;2023-04-16T05:43:27;7.80;1.00
7822;DHT22;3956;50.558;9.678;2023-04-16T05:45:56;7.80;1.00
7822;DHT22;3956;50.558;9.678;2023-04-16T05:48:25;7.80;1.00
7822;DHT22;3956;50.558;9.678;2023-04-16T05:50:53;7.80;1.00
7822;DHT22;3956;50.558;9.678;2023-04-16T05:53:21;7.80;1.00
7822;DHT22;3956;50.558;9.678;2023-04-16T05:55:50;7.80;1.00
7822;DHT22;3956;50.558;9.678;2023-04-16T05:58:21;7.80;1.00
7822;DHT22;3956;50.558;9.678;2023-04-16T06:00:51;7.80;1.00
7822;DHT22;3956;50.558;9.678;2023-04-16T06:03:20;7.80;1.00
7822;DHT22;3956;50.558;9.678;2023-04-16T06:05:50;7.90;1.00
7822;DHT22;3956;50.558;9.678;2023-04-16T06:08:19;7.90;1.00
7822;DHT22;3956;50.558;9.678;2023-04-16T06:10:49;7.80;1.00
7822;DHT22;3956;50.558;9.678;2023-04-16T06:13:18;7.90;1.00
7822;DHT22;3956;50.558;9.678;2023-04-16T06:15:49;7.90;1.00
7822;DHT22;3956;50.558;9.678;2023-04-16T06:18:17;7.90;1.00
7822;DHT22;3956;50.558;9.678;2023-04-16T06:20:50;7.90;1.00
7822;DHT22;3956;50.558;9.678;2023-04-16T06:23:19;7.90;1.00
7822;DHT22;3956;50.558;9.678;2023-04-16T06:25:56;7.90;1.00
7822;DHT22;3956;50.558;9.678;2023-04-16T06:28:25;7.90;1.00
7822;DHT22;3956;50.558;9.678;2023-04-16T06:30:56;7.90;1.00
7822;DHT22;3956;50.558;9.678;2023-04-16T06:33:42;8.00;1.00
7822;DHT22;3956;50.558;9.678;2023-04-16T06:36:11;8.00;1.00
7822;DHT22;3956;50.558;9.678;2023-04-16T06:38:41;8.00;1.00
7822;DHT22;3956;50.558;9.678;2023-04-16T06:41:13;8.10;1.00
7822;DHT22;3956;50.558;9.678;2023-04-16T06:43:53;8.20;1.00
7822;DHT22;3956;50.558;9.678;2023-04-16T06:47:03;8.20;1.00
7822;DHT22;3956;50.558;9.678;2023-04-16T06:49:32;8.30;1.00
7822;DHT22;3956;50.558;9.678;2023-04-16T06:52:08;8.40;1.00
7822;DHT22;3956;50.558;9.678;2023-04-16T06:54:41;8.40;1.00
7822;DHT22;3956;50.558;9.678;2023-04-16T06:57:09;8.30;1.00
7822;DHT22;3956;50.558;9.678;2023-04-16T06:59:39;8.30;1.00
7822;DHT22;3956;50.558;9.678;2023-04-16T07:02:11;8.30;1.00
7822;DHT22;3956;50.558;9.678;2023-04-16T07:04:42;8.30;1.00
7822;DHT22;3956;50.558;9.678;2023-04-16T07:07:15;8.30;1.00
7822;DHT22;3956;50.558;9.678;2023-04-16T07:09:44;8.40;1.00
7822;DHT22;3956;50.558;9.678;2023-04-16T07:12:19;8.40;1.00
7822;DHT22;3956;50.558;9.678;2023-04-16T07:14:50;8.40;1.00
7822;DHT22;3956;50.558;9.678;2023-04-16T07:17:22;8.40;1.00
7822;DHT22;3956;50.558;9.678;2023-04-16T07:19:52;8.40;1.00
7822;DHT22;3956;50.558;9.678;2023-04-16T07:22:21;8.40;1.00
7822;DHT22;3956;50.558;9.678;2023-04-16T07:24:52;8.40;1.00
7822;DHT22;3956;50.558;9.678;2023-04-16T07:27:20;8.50;1.00
7822;DHT22;3956;50.558;9.678;2023-04-16T07:29:50;8.50;1.00
7822;DHT22;3956;50.558;9.678;2023-04-16T07:32:22;8.50;1.00
7822;DHT22;3956;50.558;9.678;2023-04-16T07:34:52;8.40;99.90
7822;DHT22;3956;50.558;9.678;2023-04-16T07:37:26;8.40;99.90
7822;DHT22;3956;50.558;9.678;2023-04-16T07:39:54;8.40;99.90
7822;DHT22;3956;50.558;9.678;2023-04-16T07:42:25;8.40;99.90
7822;DHT22;3956;50.558;9.678;2023-04-16T07:44:55;8.40;99.90
7822;DHT22;3956;50.558;9.678;2023-04-16T07:47:30;8.40;99.90
7822;DHT22;3956;50.558;9.678;2023-04-16T07:50:00;8.40;99.90
7822;DHT22;3956;50.558;9.678;2023-04-16T07:52:34;8.40;99.90
7822;DHT22;3956;50.558;9.678;2023-04-16T07:55:03;8.50;99.90
7822;DHT22;3956;50.558;9.678;2023-04-16T07:57:33;8.50;99.90
7822;DHT22;3956;50.558;9.678;2023-04-16T08:00:04;8.50;99.90
7822;DHT22;3956;50.558;9.678;2023-04-16T08:02:36;8.60;99.90
7822;DHT22;3956;50.558;9.678;2023-04-16T08:05:09;8.60;99.90
7822;DHT22;3956;50.558;9.678;2023-04-16T08:07:45;8.60;99.90
7822;DHT22;3956;50.558;9.678;2023-04-16T08:10:15;8.60;99.90
7822;DHT22;3956;50.558;9.678;2023-04-16T08:12:44;8.50;99.90
7822;DHT22;3956;50.558;9.678;2023-04-16T08:15:12;8.60;99.90
7822;DHT22;3956;50.558;9.678;2023-04-16T08:17:42;8.70;99.90
7822;DHT22;3956;50.558;9.678;2023-04-16T08:20:11;8.70;99.90
7822;DHT22;3956;50.558;9.678;2023-04-16T08:22:44;8.80;99.90
7822;DHT22;3956;50.558;9.678;2023-04-16T08:25:14;8.80;99.90
7822;DHT22;3956;50.558;9.678;2023-04-16T08:27:43;8.80;99.90
7822;DHT22;3956;50.558;9.678;2023-04-16T08:30:15;8.80;99.90
7822;DHT22;3956;50.558;9.678;2023-04-16T08:32:47;8.80;99.90
7822;DHT22;3956;50.558;9.678;2023-04-16T08:35:16;8.80;99.90
7822;DHT22;3956;50.558;9.678;2023-04-16T08:37:45;8.70;99.90
7822;DHT22;3956;50.558;9.678;2023-04-16T08:40:15;8.70;99.90
7822;DHT22;3956;50.558;9.678;2023-04-16T08:42:44;8.70;99.90
7822;DHT22;3956;50.558;9.678;2023-04-16T08:45:16;8.70;99.90
7822;DHT22;3956;50.558;9.678;2023-04-16T08:47:49;8.80;99.90
7822;DHT22;3956;50.558;9.678;2023-04-16T08:50:23;8.80;99.90
7822;DHT22;3956;50.558;9.678;2023-04-16T08:53:05;8.80;99.90
7822;DHT22;3956;50.558;9.678;2023-04-16T08:55:48;8.80;99.90
7822;DHT22;3956;50.558;9.678;2023-04-16T08:58:20;8.80;99.90
7822;DHT22;3956;50.558;9.678;2023-04-16T09:00:54;8.80;99.90
7822;DHT22;3956;50.558;9.678;2023-04-16T09:03:55;8.80;99.90
7822;DHT22;3956;50.558;9.678;2023-04-16T09:07:13;8.80;99.90
7822;DHT22;3956;50.558;9.678;2023-04-16T09:10:14;8.70;99.90
7822;DHT22;3956;50.558;9.678;2023-04-16T09:13:14;8.80;99.90
7822;DHT22;3956;50.558;9.678;2023-04-16T09:15:47;8.80;99.90
7822;DHT22;3956;50.558;9.678;2023-04-16T09:18:24;8.80;99.90
7822;DHT22;3956;50.558;9.678;2023-04-16T09:23:36;8.80;99.90
7822;DHT22;3956;50.558;9.678;2023-04-16T09:26:06;8.90;99.90
7822;DHT22;3956;50.558;9.678;2023-04-16T09:28:39;8.90;99.90
7822;DHT22;3956;50.558;9.678;2023-04-16T09:31:09;8.80;99.90
7822;DHT22;3956;50.558;9.678;2023-04-16T09:33:40;8.80;99.90
7822;DHT22;3956;50.558;9.678;2023-04-16T09:36:10;8.80;99.90
7822;DHT22;3956;50.558;9.678;2023-04-16T09:38:45;8.90;99.90
7822;DHT22;3956;50.558;9.678;2023-04-16T09:41:16;8.90;99.90
7822;DHT22;3956;50.558;9.678;2023-04-16T09:43:53;9.00;99.90
7822;DHT22;3956;50.558;9.678;2023-04-16T09:46:30;9.10;97.40
7822;DHT22;3956;50.558;9.678;2023-04-16T09:49:07;9.00;95.50
7822;DHT22;3956;50.558;9.678;2023-04-16T09:51:39;8.90;93.80
7822;DHT22;3956;50.558;9.678;2023-04-16T09:54:08;8.90;90.30
7822;DHT22;3956;50.558;9.678;2023-04-16T09:56:39;8.90;98.60
7822;DHT22;3956;50.558;9.678;2023-04-16T09:59:22;9.00;94.90
7822;DHT22;3956;50.558;9.678;2023-04-16T10:02:39;8.90;92.60
7822;DHT22;3956;50.558;9.678;2023-04-16T10:05:26;8.90;99.90
7822;DHT22;3956;50.558;9.678;2023-04-16T10:07:58;8.80;99.90
7822;DHT22;3956;50.558;9.678;2023-04-16T10:10:27;8.90;99.90
7822;DHT22;3956;50.558;9.678;2023-04-16T10:12:57;8.90;99.90
7822;DHT22;3956;50.558;9.678;2023-04-16T10:15:25;8.80;91.80
7822;DHT22;3956;50.558;9.678;2023-04-16T10:17:55;8.90;97.60
7822;DHT22;3956;50.558;9.678;2023-04-16T10:20:32;8.90;97.10
7822;DHT22;3956;50.558;9.678;2023-04-16T10:23:05;9.00;91.80
7822;DHT22;3956;50.558;9.678;2023-04-16T10:25:42;9.00;56.70
7822;DHT22;3956;50.558;9.678;2023-04-16T10:28:17;9.10;52.00
7822;DHT22;3956;50.558;9.678;2023-04-16T10:31:06;9.00;18.20
7822;DHT22;3956;50.558;9.678;2023-04-16T10:33:42;9.00;28.40
7822;DHT22;3956;50.558;9.678;2023-04-16T10:36:16;8.90;52.80
7822;DHT22;3956;50.558;9.678;2023-04-16T10:42:22;9.00;44.50
7822;DHT22;3956;50.558;9.678;2023-04-16T10:44:52;9.00;25.10
7822;DHT22;3956;50.558;9.678;2023-04-16T10:47:25;9.00;56.00
7822;DHT22;3956;50.558;9.678;2023-04-16T10:49:57;9.10;44.80
7822;DHT22;3956;50.558;9.678;2023-04-16T10:52:28;9.00;10.60
7822;DHT22;3956;50.558;9.678;2023-04-16T10:54:58;9.00;20.40
7822;DHT22;3956;50.558;9.678;2023-04-16T10:57:28;8.90;20.50
7822;DHT22;3956;50.558;9.678;2023-04-16T10:59:59;8.90;14.50
7822;DHT22;3956;50.558;9.678;2023-04-16T11:02:28;8.90;26.20
7822;DHT22;3956;50.558;9.678;2023-04-16T11:04:56;9.00;23.70
7822;DHT22;3956;50.558;9.678;2023-04-16T11:07:36;8.90;28.30
7822;DHT22;3956;50.558;9.678;2023-04-16T11:10:12;8.90;31.10
7822;DHT22;3956;50.558;9.678;2023-04-16T11:12:45;9.00;33.70
7822;DHT22;3956;50.558;9.678;2023-04-16T11:15:15;9.00;28.00
7822;DHT22;3956;50.558;9.678;2023-04-16T11:17:46;8.90;20.50
7822;DHT22;3956;50.558;9.678;2023-04-16T11:20:16;8.80;23.30
7822;DHT22;3956;50.558;9.678;2023-04-16T11:22:46;8.80;29.30
7822;DHT22;3956;50.558;9.678;2023-04-16T11:25:18;8.90;19.70
7822;DHT22;3956;50.558;9.678;2023-04-16T11:27:49;8.90;24.80
7822;DHT22;3956;50.558;9.678;2023-04-16T11:30:28;8.90;3.30
7822;DHT22;3956;50.558;9.678;2023-04-16T11:32:56;8.90;11.70
7822;DHT22;3956;50.558;9.678;2023-04-16T11:35:29;8.90;1.00
7822;DHT22;3956;50.558;9.678;2023-04-16T11:37:58;9.00;1.00
7822;DHT22;3956;50.558;9.678;2023-04-16T11:40:29;9.10;1.00
7822;DHT22;3956;50.558;9.678;2023-04-16T11:43:02;9.30;1.00
7822;DHT22;3956;50.558;9.678;2023-04-16T11:45:31;9.30;1.00
7822;DHT22;3956;50.558;9.678;2023-04-16T11:48:03;9.30;1.00
7822;DHT22;3956;50.558;9.678;2023-04-16T11:50:31;9.30;1.00
7822;DHT22;3956;50.558;9.678;2023-04-16T11:53:05;9.30;1.00
7822;DHT22;3956;50.558;9.678;2023-04-16T11:56:00;9.40;1.00
7822;DHT22;3956;50.558;9.678;2023-04-16T11:58:30;9.60;1.00
7822;DHT22;3956;50.558;9.678;2023-04-16T12:01:00;9.60;1.00
7822;DHT22;3956;50.558;9.678;2023-04-16T12:03:37;9.70;1.00
7822;DHT22;3956;50.558;9.678;2023-04-16T12:06:10;9.80;1.00
7822;DHT22;3956;50.558;9.678;2023-04-16T12:08:38;9.60;1.00
7822;DHT22;3956;50.558;9.678;2023-04-16T12:11:06;9.60;1.00
7822;DHT22;3956;50.558;9.678;2023-04-16T12:14:06;9.70;1.00
7822;DHT22;3956;50.558;9.678;2023-04-16T12:16:34;9.30;1.00
7822;DHT22;3956;50.558;9.678;2023-04-16T12:19:03;9.20;1.00
7822;DHT22;3956;50.558;9.678;2023-04-16T12:21:36;9.20;1.00
7822;DHT22;3956;50.558;9.678;2023-04-16T12:24:30;9.20;1.00
7822;DHT22;3956;50.558;9.678;2023-04-16T12:27:24;9.30;1.00
7822;DHT22;3956;50.558;9.678;2023-04-16T12:30:08;9.20;1.00
7822;DHT22;3956;50.558;9.678;2023-04-16T12:32:37;9.20;1.00
7822;DHT22;3956;50.558;9.678;2023-04-16T12:35:06;9.20;1.00
7822;DHT22;3956;50.558;9.678;2023-04-16T12:37:34;9.20;1.00
7822;DHT22;3956;50.558;9.678;2023-04-16T12:40:04;9.10;1.00
7822;DHT22;3956;50.558;9.678;2023-04-16T12:42:34;9.20;1.00
7822;DHT22;3956;50.558;9.678;2023-04-16T12:45:08;9.40;1.00
7822;DHT22;3956;50.558;9.678;2023-04-16T12:47:37;9.40;1.00
7822;DHT22;3956;50.558;9.678;2023-04-16T12:50:06;9.40;1.00
7822;DHT22;3956;50.558;9.678;2023-04-16T12:52:39;9.30;1.00
7822;DHT22;3956;50.558;9.678;2023-04-16T12:55:09;9.30;1.00
7822;DHT22;3956;50.558;9.678;2023-04-16T12:57:41;9.30;1.00
7822;DHT22;3956;50.558;9.678;2023-04-16T13:00:21;9.30;1.00
7822;DHT22;3956;50.558;9.678;2023-04-16T13:03:10;9.30;1.00
7822;DHT22;3956;50.558;9.678;2023-04-16T13:05:48;9.30;1.00
7822;DHT22;3956;50.558;9.678;2023-04-16T13:08:19;9.30;1.00
7822;DHT22;3956;50.558;9.678;2023-04-16T13:10:49;9.30;1.00
7822;DHT22;3956;50.558;9.678;2023-04-16T13:13:20;9.30;1.00
7822;DHT22;3956;50.558;9.678;2023-04-16T13:15:54;9.20;1.00
7822;DHT22;3956;50.558;9.678;2023-04-16T13:18:24;9.20;1.00
7822;DHT22;3956;50.558;9.678;2023-04-16T13:20:54;9.20;1.00
7822;DHT22;3956;50.558;9.678;2023-04-16T13:23:24;9.10;1.00
7822;DHT22;3956;50.558;9.678;2023-04-16T13:25:53;9.10;1.00
7822;DHT22;3956;50.558;9.678;2023-04-16T13:28:24;9.10;1.00
7822;DHT22;3956;50.558;9.678;2023-04-16T13:31:16;9.00;1.00
7822;DHT22;3956;50.558;9.678;2023-04-16T13:33:51;9.00;1.00
7822;DHT22;3956;50.558;9.678;2023-04-16T13:36:30;9.10;1.00
7822;DHT22;3956;50.558;9.678;2023-04-16T13:39:03;9.00;1.00
7822;DHT22;3956;50.558;9.678;2023-04-16T13:41:39;9.20;1.00
7822;DHT22;3956;50.558;9.678;2023-04-16T13:44:09;9.00;1.00
7822;DHT22;3956;50.558;9.678;2023-04-16T13:46:42;8.90;1.00
7822;DHT22;3956;50.558;9.678;2023-04-16T13:49:16;8.90;1.00
7822;DHT22;3956;50.558;9.678;2023-04-16T13:51:45;9.00;1.00
7822;DHT22;3956;50.558;9.678;2023-04-16T13:54:13;9.10;1.00
7822;DHT22;3956;50.558;9.678;2023-04-16T13:56:41;9.10;1.00
7822;DHT22;3956;50.558;9.678;2023-04-16T13:59:10;9.10;1.00
7822;DHT22;3956;50.558;9.678;2023-04-16T14:02:02;9.10;1.00
7822;DHT22;3956;50.558;9.678;2023-04-16T14:04:36;9.10;1.00
7822;DHT22;3956;50.558;9.678;2023-04-16T14:07:05;9.20;1.00
7822;DHT22;3956;50.558;9.678;2023-04-16T14:09:45;9.20;1.00
7822;DHT22;3956;50.558;9.678;2023-04-16T14:12:16;9.20;1.00
7822;DHT22;3956;50.558;9.678;2023-04-16T14:14:50;9.20;1.00
7822;DHT22;3956;50.558;9.678;2023-04-16T14:17:31;9.20;1.00
7822;DHT22;3956;50.558;9.678;2023-04-16T14:20:08;9.30;1.00
7822;DHT22;3956;50.558;9.678;2023-04-16T14:22:38;9.20;1.00
7822;DHT22;3956;50.558;9.678;2023-04-16T14:25:11;9.30;1.00
7822;DHT22;3956;50.558;9.678;2023-04-16T14:27:51;9.30;1.00
7822;DHT22;3956;50.558;9.678;2023-04-16T14:30:25;9.30;1.00
7822;DHT22;3956;50.558;9.678;2023-04-16T14:32:59;9.40;1.00
7822;DHT22;3956;50.558;9.678;2023-04-16T14:35:29;9.50;1.00
7822;DHT22;3956;50.558;9.678;2023-04-16T14:38:07;9.40;1.00
7822;DHT22;3956;50.558;9.678;2023-04-16T14:40:42;9.40;1.00
7822;DHT22;3956;50.558;9.678;2023-04-16T14:43:12;9.40;1.00
7822;DHT22;3956;50.558;9.678;2023-04-16T14:45:40;9.30;1.00
7822;DHT22;3956;50.558;9.678;2023-04-16T14:48:10;9.20;1.00
7822;DHT22;3956;50.558;9.678;2023-04-16T14:50:38;9.20;1.00
7822;DHT22;3956;50.558;9.678;2023-04-16T14:53:10;9.20;1.00
7822;DHT22;3956;50.558;9.678;2023-04-16T14:55:39;9.20;1.00
7822;DHT22;3956;50.558;9.678;2023-04-16T14:58:07;9.10;1.00
7822;DHT22;3956;50.558;9.678;2023-04-16T15:00:36;9.10;1.00
7822;DHT22;3956;50.558;9.678;2023-04-16T15:03:07;9.10;1.00
7822;DHT22;3956;50.558;9.678;2023-04-16T15:05:37;9.00;1.00
7822;DHT22;3956;50.558;9.678;2023-04-16T15:08:06;9.10;1.00
7822;DHT22;3956;50.558;9.678;2023-04-16T15:10:34;9.00;1.00
7822;DHT22;3956;50.558;9.678;2023-04-16T15:13:04;9.10;1.00
7822;DHT22;3956;50.558;9.678;2023-04-16T15:15:33;9.10;1.00
7822;DHT22;3956;50.558;9.678;2023-04-16T15:18:02;9.00;1.00
7822;DHT22;3956;50.558;9.678;2023-04-16T15:20:30;9.10;1.00
7822;DHT22;3956;50.558;9.678;2023-04-16T15:23:00;9.10;1.00
7822;DHT22;3956;50.558;9.678;2023-04-16T15:25:29;9.00;1.00
7822;DHT22;3956;50.558;9.678;2023-04-16T15:27:57;9.10;1.00
7822;DHT22;3956;50.558;9.678;2023-04-16T15:30:25;9.20;1.00
7822;DHT22;3956;50.558;9.678;2023-04-16T15:33:03;9.10;1.00
7822;DHT22;3956;50.558;9.678;2023-04-16T15:35:32;9.20;1.00
7822;DHT22;3956;50.558;9.678;2023-04-16T15:38:03;9.20;1.00
7822;DHT22;3956;50.558;9.678;2023-04-16T15:40:35;9.20;1.00
7822;DHT22;3956;50.558;9.678;2023-04-16T15:43:07;9.10;1.00
7822;DHT22;3956;50.558;9.678;2023-04-16T15:45:36;9.10;1.00
7822;DHT22;3956;50.558;9.678;2023-04-16T15:48:05;9.10;1.00
7822;DHT22;3956;50.558;9.678;2023-04-16T15:50:33;9.10;1.00
7822;DHT22;3956;50.558;9.678;2023-04-16T15:53:03;9.10;1.00
7822;DHT22;3956;50.558;9.678;2023-04-16T15:55:32;9.00;1.00
7822;DHT22;3956;50.558;9.678;2023-04-16T15:58:04;9.00;1.00
7822;DHT22;3956;50.558;9.678;2023-04-16T16:00:33;8.90;1.00
7822;DHT22;3956;50.558;9.678;2023-04-16T16:03:01;8.90;1.00
7822;DHT22;3956;50.558;9.678;2023-04-16T16:05:32;8.90;1.00
7822;DHT22;3956;50.558;9.678;2023-04-16T16:08:18;9.00;1.00
7822;DHT22;3956;50.558;9.678;2023-04-16T16:11:13;9.00;1.00
7822;DHT22;3956;50.558;9.678;2023-04-16T16:13:43;8.90;1.00
7822;DHT22;3956;50.558;9.678;2023-04-16T16:16:18;8.90;1.00
7822;DHT22;3956;50.558;9.678;2023-04-16T16:19:18;8.90;1.00
7822;DHT22;3956;50.558;9.678;2023-04-16T16:22:20;8.90;1.00
7822;DHT22;3956;50.558;9.678;2023-04-16T16:24:58;9.00;1.00
7822;DHT22;3956;50.558;9.678;2023-04-16T16:27:27;8.90;1.00
7822;DHT22;3956;50.558;9.678;2023-04-16T16:29:56;8.90;1.00
7822;DHT22;3956;50.558;9.678;2023-04-16T16:32:28;8.90;1.00
7822;DHT22;3956;50.558;9.678;2023-04-16T16:34:57;9.00;1.00
7822;DHT22;3956;50.558;9.678;2023-04-16T16:37:33;8.90;1.00
7822;DHT22;3956;50.558;9.678;2023-04-16T16:40:06;8.90;1.00
7822;DHT22;3956;50.558;9.678;2023-04-16T16:42:41;8.90;1.00
7822;DHT22;3956;50.558;9.678;2023-04-16T16:45:11;8.90;1.00
7822;DHT22;3956;50.558;9.678;2023-04-16T16:47:42;8.90;1.00
7822;DHT22;3956;50.558;9.678;2023-04-16T16:50:21;8.90;1.00
7822;DHT22;3956;50.558;9.678;2023-04-16T16:52:52;8.80;1.00
7822;DHT22;3956;50.558;9.678;2023-04-16T16:55:38;8.80;1.00
7822;DHT22;3956;50.558;9.678;2023-04-16T16:58:09;8.90;1.00
7822;DHT22;3956;50.558;9.678;2023-04-16T17:00:43;8.90;1.00
7822;DHT22;3956;50.558;9.678;2023-04-16T17:03:12;8.90;1.00
7822;DHT22;3956;50.558;9.678;2023-04-16T17:05:47;8.90;1.00
7822;DHT22;3956;50.558;9.678;2023-04-16T17:08:19;8.80;1.00